createdAt,value
2023-01-05T00:02:06.536Z,100066.63
2023-01-05T00:07:09.361Z,100074.41
2023-01-05T00:12:30.806Z,100094.63
2023-01-05T00:17:51.213Z,100069.25
2023-01-05T00:22:55.484Z,100068.13
2023-01-05T00:27:59.646Z,100074.00
2023-01-05T00:33:02.522Z,100075.81
2023-01-05T00:38:08.107Z,100090.91
2023-01-05T00:43:12.211Z,100086.28
2023-01-05T00:48:14.966Z,100096.50
2023-01-05T00:53:18.163Z,100091.34
2023-01-05T00:58:22.495Z,100093.03
2023-01-05T01:03:25.366Z,100089.75
2023-01-05T01:08:28.181Z,100126.34
2023-01-05T01:13:32.331Z,100114.19
2023-01-05T01:18:35.322Z,100112.72
2023-01-05T01:23:38.637Z,100139.09
2023-01-05T01:28:43.365Z,100129.81
2023-01-05T01:33:46.218Z,100135.03
2023-01-05T01:38:49.047Z,100136.00
2023-01-05T01:43:54.719Z,100130.22
2023-01-05T01:49:02.981Z,100145.72
2023-01-05T01:54:09.379Z,100154.22
2023-01-05T01:59:14.781Z,100150.22
2023-01-05T02:04:17.746Z,100149.59
2023-01-05T02:09:21.208Z,100161.50
2023-01-05T02:14:34.801Z,100144.09
2023-01-05T02:20:07.354Z,100152.91
2023-01-05T02:25:32.323Z,100145.06
2023-01-05T02:31:04.072Z,100155.41
2023-01-05T02:36:24.969Z,100153.84
2023-01-05T02:41:36.190Z,100159.75
2023-01-05T02:46:41.493Z,100155.13
2023-01-05T02:51:50.333Z,100160.41
2023-01-05T02:56:59.090Z,100171.09
2023-01-05T03:02:07.761Z,100161.41
2023-01-05T03:07:14.178Z,100175.22
2023-01-05T03:12:42.524Z,100159.84
2023-01-05T03:17:51.000Z,100195.44
2023-01-05T03:23:14.970Z,100187.09
2023-01-05T03:28:39.892Z,100194.09
2023-01-05T03:34:09.376Z,100207.88
2023-01-05T03:39:16.514Z,100201.84
2023-01-05T03:44:23.231Z,100200.28
2023-01-05T03:49:27.734Z,100221.22
2023-01-05T03:54:30.812Z,100209.22
2023-01-05T03:59:33.704Z,100218.94
2023-01-05T04:04:38.343Z,100214.97
2023-01-05T04:09:44.660Z,100218.63
2023-01-05T04:14:47.593Z,100244.50
2023-01-05T04:19:52.295Z,100223.59
2023-01-05T04:24:56.606Z,100239.88
2023-01-05T04:29:59.612Z,100246.66
2023-01-05T04:35:10.919Z,100230.78
2023-01-05T04:40:15.782Z,100246.06
2023-01-05T04:45:24.638Z,100252.16
2023-01-05T04:50:29.626Z,100264.59
2023-01-05T04:55:33.920Z,100253.31
2023-01-05T05:00:37.985Z,100266.78
2023-01-05T05:05:43.948Z,100279.91
2023-01-05T05:10:49.011Z,100274.56
2023-01-05T05:15:51.982Z,100274.25
2023-01-05T05:20:56.929Z,100279.22
2023-01-05T05:26:04.978Z,100290.44
2023-01-05T05:31:07.989Z,100283.59
2023-01-05T05:36:12.330Z,100296.72
2023-01-05T05:41:15.168Z,100297.94
2023-01-05T05:46:17.992Z,100296.53
2023-01-05T05:51:22.140Z,100306.81
2023-01-05T05:56:24.858Z,100303.38
2023-01-05T06:01:27.812Z,100314.00
2023-01-05T06:06:32.079Z,100318.88
2023-01-05T06:11:34.897Z,100338.47
2023-01-05T06:16:37.846Z,100343.28
2023-01-05T06:21:41.999Z,100345.19
2023-01-05T06:26:45.566Z,100358.78
2023-01-05T06:31:48.373Z,100360.06
2023-01-05T06:36:57.849Z,100368.63
2023-01-05T06:42:03.407Z,100365.75
2023-01-05T06:47:06.300Z,100366.78
2023-01-05T06:52:15.939Z,100371.84
2023-01-05T06:57:19.224Z,100378.88
2023-01-05T07:02:21.987Z,100404.28
2023-01-05T07:07:26.488Z,100404.38
2023-01-05T07:12:29.352Z,100423.47
2023-01-05T07:17:32.838Z,100425.25
2023-01-05T07:22:37.085Z,100426.22
2023-01-05T07:27:39.897Z,100424.63
2023-01-05T07:32:42.698Z,100438.53
2023-01-05T07:37:46.931Z,100454.19
2023-01-05T07:42:51.936Z,100454.19
2023-01-05T07:47:54.868Z,100469.06
2023-01-05T07:52:59.677Z,100470.56
2023-01-05T07:58:02.532Z,100478.38
2023-01-05T08:03:05.407Z,100476.13
2023-01-05T08:08:09.674Z,100480.94
2023-01-05T08:13:30.437Z,100489.06
2023-01-05T08:18:33.256Z,100494.78
2023-01-05T08:23:38.792Z,100503.72
2023-01-05T08:28:41.736Z,100505.81
2023-01-05T08:33:45.062Z,100511.34
2023-01-05T08:38:52.052Z,100530.50
2023-01-05T08:43:56.085Z,100519.28
2023-01-05T08:49:00.615Z,100524.53
2023-01-05T08:54:05.136Z,100525.50
2023-01-05T08:59:08.532Z,100526.13
2023-01-05T09:04:11.300Z,100540.56
2023-01-05T09:09:15.466Z,100550.16
2023-01-05T09:14:18.808Z,100546.13
2023-01-05T09:19:21.666Z,100558.16
2023-01-05T09:24:26.299Z,100571.47
2023-01-05T09:29:29.041Z,100578.41
2023-01-05T09:34:31.880Z,100595.34
2023-01-05T09:39:35.986Z,100585.88
2023-01-05T09:44:42.780Z,100602.78
2023-01-05T09:49:47.078Z,100621.09
2023-01-05T09:54:51.224Z,100617.91
2023-01-05T09:59:58.632Z,100622.09
2023-01-05T10:05:05.312Z,100634.72
2023-01-05T10:10:29.862Z,100634.09
2023-01-05T10:15:43.289Z,100633.34
2023-01-05T10:21:07.442Z,100646.78
2023-01-05T10:26:18.634Z,100653.63
2023-01-05T10:31:25.037Z,100661.56
2023-01-05T10:42:17.268Z,100652.34
2023-01-05T10:47:22.483Z,100673.41
2023-01-05T10:52:25.489Z,100675.84
2023-01-05T10:57:36.963Z,100656.13
2023-01-05T11:02:42.150Z,100675.97
2023-01-05T11:07:49.062Z,100679.47
2023-01-05T11:13:04.449Z,100684.69
2023-01-05T11:18:08.183Z,100687.75
2023-01-05T11:23:35.368Z,100689.13
2023-01-05T11:28:39.614Z,100674.91
2023-01-05T11:33:42.471Z,100688.59
2023-01-05T11:38:45.444Z,100695.47
2023-01-05T11:43:51.353Z,100700.31
2023-01-05T11:48:56.522Z,100700.41
2023-01-05T11:53:59.395Z,100696.44
2023-01-05T11:59:03.600Z,100694.91
2023-01-05T12:04:17.208Z,100698.19
2023-01-05T12:09:32.700Z,100703.72
2023-01-05T12:14:54.726Z,100709.31
2023-01-05T12:20:09.453Z,100702.09
2023-01-05T12:25:21.451Z,100710.97
2023-01-05T12:36:22.856Z,100719.47
2023-01-05T12:41:39.737Z,100722.28
2023-01-05T12:47:00.656Z,100729.69
2023-01-05T12:52:10.525Z,100727.19
2023-01-05T12:57:17.797Z,100736.31
2023-01-05T13:02:30.533Z,100737.38
2023-01-05T13:07:34.858Z,100737.34
2023-01-05T13:12:39.425Z,100735.66
2023-01-05T13:17:48.241Z,100740.09
2023-01-05T13:22:55.260Z,100751.19
2023-01-05T13:27:58.096Z,100754.94
2023-01-05T13:33:29.090Z,100755.72
2023-01-05T13:39:11.826Z,100763.88
2023-01-05T13:44:41.592Z,100777.75
2023-01-05T13:50:27.699Z,100772.13
2023-01-05T13:55:33.571Z,100780.66
2023-01-05T14:00:42.929Z,100789.41
2023-01-05T14:05:51.853Z,100799.34
2023-01-05T14:11:15.768Z,100807.13
2023-01-05T14:16:52.218Z,100793.19
2023-01-05T14:22:36.621Z,100797.06
2023-01-05T14:28:18.343Z,100809.47
2023-01-05T14:33:21.944Z,100811.59
2023-01-05T14:38:26.419Z,100819.59
2023-01-05T14:43:32.401Z,100818.84
2023-01-05T14:48:43.577Z,100823.63
2023-01-05T14:53:50.239Z,100826.19
2023-01-05T14:59:07.168Z,100840.34
2023-01-05T15:04:14.948Z,100845.13
2023-01-05T15:09:38.239Z,100842.09
2023-01-05T15:15:06.550Z,100849.94
2023-01-05T15:20:54.766Z,100844.19
2023-01-05T15:26:23.049Z,100836.66
2023-01-05T15:31:38.000Z,100838.72
2023-01-05T15:36:47.822Z,100840.94
2023-01-05T15:41:52.645Z,100833.75
2023-01-05T15:46:56.241Z,100850.84
2023-01-05T15:51:59.325Z,100843.94
2023-01-05T15:57:03.584Z,100859.31
2023-01-05T16:02:17.425Z,100853.84
2023-01-05T16:07:20.331Z,100857.66
2023-01-05T16:12:26.448Z,100855.75
2023-01-05T16:17:30.801Z,100862.72
2023-01-05T16:22:42.702Z,100859.09
2023-01-05T16:27:50.215Z,100858.88
2023-01-05T16:32:57.558Z,100875.22
2023-01-05T16:38:14.629Z,100867.94
2023-01-05T16:43:23.693Z,100876.69
2023-01-05T16:48:49.795Z,100874.28
2023-01-05T16:53:59.618Z,100872.25
2023-01-05T16:59:05.615Z,100879.03
2023-01-05T17:04:12.861Z,100878.88
2023-01-05T17:09:20.874Z,100882.19
2023-01-05T17:14:27.211Z,100887.44
2023-01-05T17:19:30.117Z,100894.28
2023-01-05T17:24:33.941Z,100899.66
2023-01-05T17:29:38.703Z,100898.09
2023-01-05T17:34:42.385Z,100895.72
2023-01-05T17:39:45.256Z,100892.66
2023-01-05T17:44:49.478Z,100884.34
2023-01-05T17:49:52.327Z,100880.22
2023-01-05T17:54:55.140Z,100882.91
2023-01-05T17:59:59.280Z,100885.59
2023-01-05T18:05:02.077Z,100878.41
2023-01-05T18:15:17.140Z,100870.28
2023-01-05T18:20:21.460Z,100873.84
2023-01-05T18:25:24.806Z,100873.63
2023-01-05T18:30:29.389Z,100875.13
2023-01-05T18:35:32.198Z,100871.25
2023-01-05T18:40:35.119Z,100870.19
2023-01-05T18:45:40.233Z,100869.69
2023-01-05T18:50:49.880Z,100866.06
2023-01-05T18:55:53.132Z,100868.06
2023-01-05T19:00:57.281Z,100865.13
2023-01-05T19:06:00.131Z,100866.25
2023-01-05T19:11:11.708Z,100874.50
2023-01-05T19:16:16.536Z,100875.91
2023-01-05T19:21:20.102Z,100859.44
2023-01-05T19:26:23.565Z,100864.16
2023-01-05T19:31:29.220Z,100864.78
2023-01-05T19:36:34.771Z,100863.13
2023-01-05T19:41:39.744Z,100862.06
2023-01-05T19:46:44.632Z,100851.16
2023-01-05T19:51:47.927Z,100855.94
2023-01-05T19:56:50.808Z,100849.91
2023-01-05T20:01:56.193Z,100853.09
2023-01-05T20:07:02.346Z,100844.41
2023-01-05T20:12:14.484Z,100848.59
2023-01-05T20:17:19.405Z,100844.84
2023-01-05T20:22:22.655Z,100843.66
2023-01-05T20:27:25.409Z,100840.44
2023-01-05T20:32:29.857Z,100825.44
2023-01-05T20:37:33.427Z,100818.25
2023-01-05T20:42:37.130Z,100818.56
2023-01-05T20:47:47.554Z,100821.16
2023-01-05T20:52:50.913Z,100818.19
2023-01-05T20:57:53.733Z,100830.34
2023-01-05T21:02:57.962Z,100828.06
2023-01-05T21:08:00.739Z,100827.59
2023-01-05T21:13:31.891Z,100829.03
2023-01-05T21:18:28.390Z,100826.91
2023-01-05T21:23:31.209Z,100818.69
2023-01-05T21:28:34.076Z,100818.81
2023-01-05T21:33:40.244Z,100814.75
2023-01-05T21:39:00.790Z,100809.81
2023-01-05T21:44:07.362Z,100794.81
2023-01-05T21:49:12.792Z,100797.28
2023-01-05T21:54:33.431Z,100801.69
2023-01-05T21:59:36.346Z,100796.91
2023-01-05T22:04:40.517Z,100782.44
2023-01-05T22:09:43.484Z,100771.00
2023-01-05T22:14:46.610Z,100776.22
2023-01-05T22:19:53.242Z,100768.56
2023-01-05T22:24:56.123Z,100765.69
2023-01-05T22:29:58.933Z,100755.94
2023-01-05T22:35:03.238Z,100757.56
2023-01-05T22:40:07.036Z,100756.13
2023-01-05T22:45:10.508Z,100752.19
2023-01-05T22:50:14.648Z,100754.00
2023-01-05T22:55:17.586Z,100759.75
2023-01-05T23:00:20.341Z,100754.28
2023-01-05T23:05:24.529Z,100751.91
2023-01-05T23:10:28.388Z,100747.06
2023-01-05T23:15:31.143Z,100743.06
2023-01-05T23:20:35.317Z,100742.53
2023-01-05T23:25:38.094Z,100719.75
2023-01-05T23:30:40.982Z,100736.09
2023-01-05T23:35:45.941Z,100734.53
2023-01-05T23:40:50.217Z,100725.94
2023-01-05T23:45:59.879Z,100726.00
2023-01-05T23:51:05.889Z,100717.97
2023-01-05T23:56:11.314Z,100713.22
